createdAt,value
2023-02-03T00:00:02.231Z,102642.47
2023-02-03T00:02:04.027Z,102641.81
2023-02-03T00:04:05.988Z,102646.97
2023-02-03T00:06:08.471Z,102640.06
2023-02-03T00:08:11.820Z,102638.75
2023-02-03T00:10:14.304Z,102643.59
2023-02-03T00:12:16.195Z,102641.56
2023-02-03T00:14:17.998Z,102653.41
2023-02-03T00:16:19.863Z,102640.84
2023-02-03T00:18:21.750Z,102653.38
2023-02-03T00:20:23.998Z,102649.47
2023-02-03T00:22:25.916Z,102643.00
2023-02-03T00:24:27.721Z,102643.81
2023-02-03T00:26:29.940Z,102651.72
2023-02-03T00:28:31.965Z,102652.72
2023-02-03T00:30:36.057Z,102657.13
2023-02-03T00:32:38.402Z,102663.47
2023-02-03T00:34:40.141Z,102653.81
2023-02-03T00:36:43.034Z,102649.88
2023-02-03T00:38:45.329Z,102651.47
2023-02-03T00:40:53.573Z,102642.28
2023-02-03T00:42:55.953Z,102649.06
2023-02-03T00:44:59.940Z,102634.72
2023-02-03T00:47:01.864Z,102629.66
2023-02-03T00:49:04.850Z,102621.72
2023-02-03T00:51:07.335Z,102615.28
2023-02-03T00:53:09.490Z,102619.13
2023-02-03T00:55:13.959Z,102607.72
2023-02-03T00:57:15.745Z,102607.06
2023-02-03T00:59:18.167Z,102606.38
2023-02-03T01:01:20.007Z,102603.09
2023-02-03T01:03:21.755Z,102605.09
2023-02-03T01:05:23.919Z,102608.63
2023-02-03T01:07:25.744Z,102607.03
2023-02-03T01:09:27.530Z,102613.34
2023-02-03T01:11:29.314Z,102621.16
2023-02-03T01:13:31.195Z,102610.47
2023-02-03T01:15:33.344Z,102618.50
2023-02-03T01:17:35.111Z,102614.22
2023-02-03T01:19:36.919Z,102617.44
2023-02-03T01:21:38.877Z,102615.84
2023-02-03T01:23:40.955Z,102611.13
2023-02-03T01:25:42.747Z,102617.63
2023-02-03T01:27:44.926Z,102614.22
2023-02-03T01:29:46.774Z,102610.94
2023-02-03T01:31:48.695Z,102603.22
2023-02-03T01:33:52.698Z,102609.66
2023-02-03T01:35:54.445Z,102614.22
2023-02-03T01:37:56.268Z,102612.84
2023-02-03T01:39:58.105Z,102619.56
2023-02-03T01:41:59.901Z,102602.41
2023-02-03T01:44:02.856Z,102615.03
2023-02-03T01:46:11.196Z,102627.41
2023-02-03T01:48:12.977Z,102624.38
2023-02-03T01:50:21.585Z,102616.59
2023-02-03T01:52:24.219Z,102621.16
2023-02-03T01:54:29.935Z,102618.34
2023-02-03T01:56:39.025Z,102606.00
2023-02-03T01:58:43.503Z,102613.06
2023-02-03T02:00:46.246Z,102617.03
2023-02-03T02:02:50.342Z,102617.75
2023-02-03T02:04:58.398Z,102611.28
2023-02-03T02:07:00.814Z,102612.34
2023-02-03T02:09:03.340Z,102606.28
2023-02-03T02:11:06.893Z,102599.38
2023-02-03T02:13:08.916Z,102598.78
2023-02-03T02:15:11.179Z,102583.75
2023-02-03T02:17:28.994Z,102578.84
2023-02-03T02:19:37.002Z,102578.19
2023-02-03T02:21:43.199Z,102569.25
2023-02-03T02:23:52.901Z,102573.78
2023-02-03T02:26:00.934Z,102556.97
2023-02-03T02:28:06.198Z,102562.72
2023-02-03T02:30:22.346Z,102578.69
2023-02-03T02:32:27.559Z,102578.69
2023-02-03T02:34:39.358Z,102597.44
2023-02-03T02:36:47.376Z,102596.19
2023-02-03T02:39:01.297Z,102597.59
2023-02-03T02:41:10.776Z,102612.25
2023-02-03T02:43:18.750Z,102617.75
2023-02-03T02:45:27.045Z,102616.44
2023-02-03T02:47:29.168Z,102620.78
2023-02-03T02:49:34.439Z,102618.53
2023-02-03T02:51:39.249Z,102624.72
2023-02-03T02:53:48.630Z,102622.47
2023-02-03T02:55:54.004Z,102611.59
2023-02-03T02:58:01.125Z,102621.03
2023-02-03T03:00:06.150Z,102622.34
2023-02-03T03:02:11.049Z,102620.16
2023-02-03T03:04:18.950Z,102618.66
2023-02-03T03:06:25.036Z,102623.59
2023-02-03T03:08:37.353Z,102622.78
2023-02-03T03:10:43.323Z,102618.94
2023-02-03T03:12:50.060Z,102625.72
2023-02-03T03:14:59.504Z,102625.06
2023-02-03T03:17:06.071Z,102629.50
2023-02-03T03:19:12.629Z,102632.34
2023-02-03T03:21:21.058Z,102632.28
2023-02-03T03:23:28.277Z,102628.91
2023-02-03T03:25:39.480Z,102622.06
2023-02-03T03:27:46.954Z,102627.56
2023-02-03T03:29:56.103Z,102620.78
2023-02-03T03:32:01.252Z,102622.06
2023-02-03T03:34:03.745Z,102619.19
2023-02-03T03:36:09.274Z,102617.78
2023-02-03T03:38:20.884Z,102618.38
2023-02-03T03:40:29.065Z,102624.34
2023-02-03T03:42:37.108Z,102622.56
2023-02-03T03:44:48.391Z,102620.28
2023-02-03T03:47:01.915Z,102619.63
2023-02-03T03:49:07.919Z,102621.78
2023-02-03T03:51:16.920Z,102614.41
2023-02-03T03:53:19.981Z,102614.41
2023-02-03T03:55:22.266Z,102612.75
2023-02-03T03:57:31.054Z,102608.94
2023-02-03T03:59:37.602Z,102608.19
2023-02-03T04:01:40.118Z,102606.63
2023-02-03T04:03:49.914Z,102604.63
2023-02-03T04:05:52.019Z,102605.63
2023-02-03T04:07:53.777Z,102614.28
2023-02-03T04:09:55.895Z,102614.28
2023-02-03T04:12:00.757Z,102625.00
2023-02-03T04:14:02.938Z,102617.94
2023-02-03T04:16:05.148Z,102626.03
2023-02-03T04:18:06.999Z,102614.47
2023-02-03T04:20:09.794Z,102610.22
2023-02-03T04:22:12.149Z,102616.00
2023-02-03T04:24:13.986Z,102614.31
2023-02-03T04:26:18.160Z,102618.06
2023-02-03T04:28:19.994Z,102614.31
2023-02-03T04:30:22.075Z,102619.84
2023-02-03T04:32:24.159Z,102599.69
2023-02-03T04:34:25.991Z,102620.84
2023-02-03T04:36:27.865Z,102617.19
2023-02-03T04:38:30.120Z,102629.19
2023-02-03T04:40:34.692Z,102634.31
2023-02-03T04:42:38.886Z,102636.59
2023-02-03T04:44:41.085Z,102648.22
2023-02-03T04:46:42.844Z,102641.91
2023-02-03T04:48:45.142Z,102648.44
2023-02-03T04:50:47.040Z,102651.59
2023-02-03T04:52:48.762Z,102651.38
2023-02-03T04:54:50.514Z,102642.56
2023-02-03T04:56:52.450Z,102638.75
2023-02-03T04:58:54.589Z,102642.94
2023-02-03T05:00:56.403Z,102649.94
2023-02-03T05:02:58.324Z,102649.06
2023-02-03T05:05:00.425Z,102661.47
2023-02-03T05:07:02.324Z,102668.81
2023-02-03T05:09:04.363Z,102675.94
2023-02-03T05:11:06.791Z,102671.03
2023-02-03T05:13:13.132Z,102672.31
2023-02-03T05:15:17.067Z,102675.38
2023-02-03T05:17:18.860Z,102663.56
2023-02-03T05:19:20.643Z,102665.63
2023-02-03T05:21:22.952Z,102661.28
2023-02-03T05:23:24.791Z,102662.41
2023-02-03T05:25:26.817Z,102666.00
2023-02-03T05:27:28.784Z,102664.66
2023-02-03T05:29:30.564Z,102661.66
2023-02-03T05:31:33.666Z,102674.88
2023-02-03T05:33:35.945Z,102686.06
2023-02-03T05:35:37.842Z,102685.25
2023-02-03T05:37:39.866Z,102680.59
2023-02-03T05:39:43.995Z,102681.06
2023-02-03T05:41:48.834Z,102687.69
2023-02-03T05:43:50.984Z,102683.09
2023-02-03T05:45:52.829Z,102689.44
2023-02-03T05:47:54.580Z,102688.56
2023-02-03T05:49:56.379Z,102697.84
2023-02-03T05:51:58.216Z,102691.41
2023-02-03T05:54:02.726Z,102693.78
2023-02-03T05:56:04.820Z,102699.97
2023-02-03T05:58:06.545Z,102703.47
2023-02-03T06:00:09.215Z,102688.66
2023-02-03T06:02:10.939Z,102688.97
2023-02-03T06:04:15.228Z,102691.22
2023-02-03T06:06:17.580Z,102689.13
2023-02-03T06:08:21.557Z,102685.38
2023-02-03T06:10:23.326Z,102694.84
2023-02-03T06:12:26.975Z,102693.13
2023-02-03T06:14:30.320Z,102697.78
2023-02-03T06:16:32.264Z,102695.66
2023-02-03T06:18:34.079Z,102703.97
2023-02-03T06:20:35.995Z,102704.78
2023-02-03T06:22:38.211Z,102707.13
2023-02-03T06:24:42.294Z,102713.75
2023-02-03T06:26:44.083Z,102717.44
2023-02-03T06:28:45.909Z,102719.88
2023-02-03T06:30:51.330Z,102712.94
2023-02-03T06:32:53.260Z,102716.97
2023-02-03T06:34:57.444Z,102711.66
2023-02-03T06:37:00.044Z,102709.41
2023-02-03T06:39:01.954Z,102709.09
2023-02-03T06:41:05.113Z,102710.06
2023-02-03T06:43:06.904Z,102710.53
2023-02-03T06:45:09.688Z,102707.16
2023-02-03T06:47:11.493Z,102708.63
2023-02-03T06:49:13.619Z,102722.13
2023-02-03T06:51:15.785Z,102711.75
2023-02-03T06:53:17.638Z,102723.66
2023-02-03T06:55:19.364Z,102714.38
2023-02-03T06:57:21.480Z,102720.69
2023-02-03T06:59:23.358Z,102724.06
2023-02-03T07:01:26.246Z,102726.53
2023-02-03T07:03:28.138Z,102735.06
2023-02-03T07:05:30.448Z,102731.88
2023-02-03T07:07:35.001Z,102734.03
2023-02-03T07:09:36.870Z,102735.16
2023-02-03T07:11:38.666Z,102744.22
2023-02-03T07:13:42.510Z,102746.19
2023-02-03T07:15:44.367Z,102745.31
2023-02-03T07:17:54.614Z,102750.69
2023-02-03T07:19:56.689Z,102750.59
2023-02-03T07:22:00.939Z,102756.09
2023-02-03T07:24:03.224Z,102758.81
2023-02-03T07:26:06.664Z,102752.78
2023-02-03T07:28:08.997Z,102755.28
2023-02-03T07:30:13.895Z,102758.41
2023-02-03T07:32:15.744Z,102748.50
2023-02-03T07:34:17.525Z,102752.03
2023-02-03T07:36:19.371Z,102758.81
2023-02-03T07:38:21.547Z,102756.56
2023-02-03T07:40:25.905Z,102749.88
2023-02-03T07:42:27.885Z,102757.38
2023-02-03T07:44:29.756Z,102754.66
2023-02-03T07:46:31.712Z,102760.81
2023-02-03T07:48:33.767Z,102763.25
2023-02-03T07:50:35.580Z,102762.00
2023-02-03T07:52:38.306Z,102768.78
2023-02-03T07:54:40.098Z,102765.72
2023-02-03T07:56:43.244Z,102776.50
2023-02-03T07:58:45.315Z,102772.50
2023-02-03T08:00:47.126Z,102776.44
2023-02-03T08:02:48.949Z,102777.00
2023-02-03T08:04:51.239Z,102776.91
2023-02-03T08:06:53.083Z,102771.13
2023-02-03T08:08:54.924Z,102768.56
2023-02-03T08:10:57.211Z,102755.00
2023-02-03T08:12:59.103Z,102765.41
2023-02-03T08:15:01.178Z,102754.78
2023-02-03T08:17:03.073Z,102765.25
2023-02-03T08:19:07.085Z,102768.97
2023-02-03T08:21:11.429Z,102767.34
2023-02-03T08:23:13.339Z,102768.97
2023-02-03T08:25:15.443Z,102764.69
2023-02-03T08:27:19.745Z,102766.69
2023-02-03T08:29:21.760Z,102774.56
2023-02-03T08:31:26.214Z,102777.94
2023-02-03T08:33:29.057Z,102789.13
2023-02-03T08:35:30.869Z,102795.84
2023-02-03T08:37:33.185Z,102797.69
2023-02-03T08:39:35.556Z,102794.53
2023-02-03T08:41:37.426Z,102786.59
2023-02-03T08:43:39.883Z,102784.09
2023-02-03T08:45:41.861Z,102794.88
2023-02-03T08:47:43.776Z,102793.09
2023-02-03T08:49:45.943Z,102791.50
2023-02-03T08:51:49.450Z,102809.13
2023-02-03T08:53:52.053Z,102807.50
2023-02-03T08:55:56.421Z,102811.06
2023-02-03T08:57:58.460Z,102811.63
2023-02-03T09:00:00.319Z,102807.81
2023-02-03T09:02:04.627Z,102818.88
2023-02-03T09:04:09.094Z,102811.94
2023-02-03T09:06:16.945Z,102804.38
2023-02-03T09:08:18.740Z,102809.59
2023-02-03T09:10:20.639Z,102820.63
2023-02-03T09:12:22.799Z,102824.25
2023-02-03T09:14:27.642Z,102821.19
2023-02-03T09:16:31.156Z,102822.25
2023-02-03T09:18:33.325Z,102838.00
2023-02-03T09:20:35.229Z,102835.50
2023-02-03T09:22:37.521Z,102835.78
2023-02-03T09:24:40.074Z,102844.84
2023-02-03T09:26:45.725Z,102843.00
2023-02-03T09:28:47.982Z,102850.41
2023-02-03T09:30:52.428Z,102841.63
2023-02-03T09:32:56.546Z,102843.41
2023-02-03T09:34:58.493Z,102844.56
2023-02-03T09:37:02.914Z,102847.53
2023-02-03T09:39:05.299Z,102847.59
2023-02-03T09:41:12.817Z,102847.69
2023-02-03T09:43:21.198Z,102848.72
2023-02-03T09:45:26.492Z,102850.97
2023-02-03T09:47:32.829Z,102858.16
2023-02-03T09:49:41.183Z,102877.31
2023-02-03T09:51:51.288Z,102877.00
2023-02-03T09:54:01.347Z,102876.69
2023-02-03T09:56:03.519Z,102884.16
2023-02-03T09:58:09.955Z,102897.59
2023-02-03T10:00:19.712Z,102894.41
2023-02-03T10:02:25.395Z,102897.19
2023-02-03T10:04:34.405Z,102902.69
2023-02-03T10:06:40.623Z,102902.91
2023-02-03T10:08:59.660Z,102914.66
2023-02-03T10:11:10.570Z,102908.06
2023-02-03T10:13:19.050Z,102918.84
2023-02-03T10:15:32.160Z,102929.47
2023-02-03T10:17:41.546Z,102932.22
2023-02-03T10:19:47.410Z,102933.53
2023-02-03T10:21:55.480Z,102942.16
2023-02-03T10:24:00.119Z,102936.97
2023-02-03T10:26:06.571Z,102937.75
2023-02-03T10:28:18.538Z,102950.16
2023-02-03T10:30:25.370Z,102939.84
2023-02-03T10:32:28.092Z,102935.50
2023-02-03T10:34:29.998Z,102930.91
2023-02-03T10:36:38.192Z,102938.25
2023-02-03T10:38:43.637Z,102936.56
2023-02-03T10:40:46.541Z,102943.81
2023-02-03T10:42:52.391Z,102947.88
2023-02-03T10:44:59.117Z,102947.44
2023-02-03T10:47:01.139Z,102950.34
2023-02-03T10:49:03.778Z,102957.50
2023-02-03T10:51:15.718Z,102946.22
2023-02-03T10:53:19.347Z,102942.22
2023-02-03T10:55:23.123Z,102949.47
2023-02-03T10:57:25.854Z,102943.78
2023-02-03T10:59:32.535Z,102951.53
2023-02-03T11:01:41.174Z,102954.00
2023-02-03T11:03:55.079Z,102950.09
2023-02-03T11:06:03.555Z,102957.13
2023-02-03T11:08:15.583Z,102951.66
2023-02-03T11:10:23.717Z,102953.41
2023-02-03T11:12:26.062Z,102949.25
2023-02-03T11:14:37.059Z,102947.44
2023-02-03T11:16:41.667Z,102949.06
2023-02-03T11:18:46.298Z,102946.78
2023-02-03T11:20:48.322Z,102951.59
2023-02-03T11:22:50.374Z,102945.16
2023-02-03T11:24:52.636Z,102954.34
2023-02-03T11:27:00.534Z,102949.69
2023-02-03T11:29:04.896Z,102949.19
2023-02-03T11:31:18.171Z,102944.47
2023-02-03T11:33:24.721Z,102935.56
2023-02-03T11:35:29.580Z,102940.00
2023-02-03T11:37:42.094Z,102940.66
2023-02-03T11:39:44.085Z,102940.81
2023-02-03T11:41:47.315Z,102950.28
2023-02-03T11:43:54.682Z,102954.72
2023-02-03T11:46:03.158Z,102945.94
2023-02-03T11:48:11.214Z,102952.59
2023-02-03T11:50:21.704Z,102954.09
2023-02-03T11:52:34.070Z,102956.75
2023-02-03T11:54:48.713Z,102964.25
2023-02-03T11:56:57.271Z,102958.25
2023-02-03T11:59:05.373Z,102953.34
2023-02-03T12:01:11.092Z,102943.53
2023-02-03T12:03:27.024Z,102936.88
2023-02-03T12:05:32.406Z,102936.63
2023-02-03T12:07:43.553Z,102942.47
2023-02-03T12:09:51.839Z,102936.13
2023-02-03T12:12:05.636Z,102939.03
2023-02-03T12:14:13.722Z,102948.28
2023-02-03T12:16:21.895Z,102952.25
2023-02-03T12:18:27.303Z,102950.81
2023-02-03T12:20:33.671Z,102949.28
2023-02-03T12:22:45.085Z,102939.31
2023-02-03T12:24:55.222Z,102952.09
2023-02-03T12:27:02.399Z,102951.72
2023-02-03T12:29:12.666Z,102941.81
2023-02-03T12:31:22.042Z,102935.28
2023-02-03T12:33:30.527Z,102937.16
2023-02-03T12:35:35.286Z,102933.06
2023-02-03T12:37:41.704Z,102938.41
2023-02-03T12:39:49.075Z,102933.84
2023-02-03T12:42:00.436Z,102938.25
2023-02-03T12:44:08.663Z,102939.38
2023-02-03T12:46:18.391Z,102947.66
2023-02-03T12:48:29.460Z,102932.81
2023-02-03T12:50:35.674Z,102936.53
2023-02-03T12:52:48.093Z,102940.28
2023-02-03T12:54:56.262Z,102942.16
2023-02-03T12:57:08.306Z,102939.75
2023-02-03T12:59:17.154Z,102952.81
2023-02-03T13:01:25.385Z,102944.66
2023-02-03T13:03:33.506Z,102952.28
2023-02-03T13:05:42.159Z,102951.19
2023-02-03T13:07:49.592Z,102946.00
2023-02-03T13:10:01.011Z,102953.84
2023-02-03T13:12:09.108Z,102956.28
2023-02-03T13:14:17.207Z,102952.91
2023-02-03T13:16:25.697Z,102936.22
2023-02-03T13:18:34.668Z,102942.75
2023-02-03T13:20:37.252Z,102946.63
2023-02-03T13:22:39.137Z,102947.47
2023-02-03T13:24:49.105Z,102934.22
2023-02-03T13:26:57.647Z,102948.56
2023-02-03T13:29:01.306Z,102951.47
2023-02-03T13:31:09.614Z,102938.72
2023-02-03T13:33:24.870Z,102949.38
2023-02-03T13:35:36.615Z,102943.44
2023-02-03T13:37:49.168Z,102933.41
2023-02-03T13:40:00.879Z,102927.38
2023-02-03T13:42:08.979Z,102929.19
2023-02-03T13:44:15.703Z,102924.50
2023-02-03T13:46:22.449Z,102927.03
2023-02-03T13:48:28.002Z,102930.38
2023-02-03T13:50:31.168Z,102931.09
2023-02-03T13:52:36.574Z,102935.28
2023-02-03T13:54:44.280Z,102930.78
2023-02-03T13:56:57.520Z,102931.59
2023-02-03T13:59:04.473Z,102924.53
2023-02-03T14:01:30.161Z,102932.84
2023-02-03T14:03:33.192Z,102927.50
2023-02-03T14:05:40.847Z,102923.75
2023-02-03T14:07:42.739Z,102922.66
2023-02-03T14:09:47.168Z,102915.03
2023-02-03T14:11:52.196Z,102929.44
2023-02-03T14:13:55.059Z,102937.28
2023-02-03T14:16:14.251Z,102930.66
2023-02-03T14:18:32.025Z,102946.06
2023-02-03T14:20:39.522Z,102940.84
2023-02-03T14:22:41.698Z,102944.25
2023-02-03T14:24:47.225Z,102939.69
2023-02-03T14:26:52.147Z,102937.75
2023-02-03T14:28:54.571Z,102938.69
2023-02-03T14:31:05.461Z,102935.97
2023-02-03T14:33:07.439Z,102939.34
2023-02-03T14:35:15.619Z,102942.69
2023-02-03T14:37:21.187Z,102954.56
2023-02-03T14:39:29.365Z,102946.06
2023-02-03T14:41:37.383Z,102948.72
2023-02-03T14:43:50.778Z,102952.88
2023-02-03T14:45:59.135Z,102957.84
2023-02-03T14:48:12.632Z,102951.78
2023-02-03T14:50:18.511Z,102953.34
2023-02-03T14:52:24.143Z,102957.63
2023-02-03T14:54:32.230Z,102961.94
2023-02-03T14:56:57.457Z,102963.28
2023-02-03T14:59:05.032Z,102967.06
2023-02-03T15:01:08.473Z,102967.19
2023-02-03T15:03:11.219Z,102972.72
2023-02-03T15:05:14.355Z,102976.91
2023-02-03T15:07:22.649Z,102971.06
2023-02-03T15:09:31.222Z,102960.28
2023-02-03T15:11:34.324Z,102970.91
2023-02-03T15:13:36.744Z,102959.41
2023-02-03T15:15:39.648Z,102965.22
2023-02-03T15:17:42.209Z,102972.09
2023-02-03T15:19:44.119Z,102974.06
2023-02-03T15:21:46.464Z,102969.44
2023-02-03T15:23:49.683Z,102961.69
2023-02-03T15:25:56.313Z,102955.50
2023-02-03T15:28:04.450Z,102968.38
2023-02-03T15:30:17.460Z,102962.28
2023-02-03T15:32:25.187Z,102971.75
2023-02-03T15:34:33.299Z,102982.28
2023-02-03T15:36:43.326Z,102983.94
2023-02-03T15:38:55.858Z,102983.72
2023-02-03T15:40:59.266Z,102991.66
2023-02-03T15:43:04.730Z,102994.97
2023-02-03T15:45:22.751Z,102991.50
2023-02-03T15:47:31.166Z,102987.78
2023-02-03T15:49:42.141Z,102998.28
2023-02-03T15:51:49.770Z,102996.56
2023-02-03T15:53:55.026Z,103002.28
2023-02-03T15:56:01.322Z,103006.44
2023-02-03T15:58:04.279Z,103002.91
2023-02-03T16:00:09.747Z,102998.63
2023-02-03T16:02:16.167Z,103004.56
2023-02-03T16:04:19.310Z,103000.94
2023-02-03T16:06:27.328Z,103007.69
2023-02-03T16:08:39.896Z,103002.22
2023-02-03T16:10:41.813Z,103008.50
2023-02-03T16:12:43.770Z,103017.06
2023-02-03T16:14:46.568Z,103012.03
2023-02-03T16:17:04.369Z,103015.84
2023-02-03T16:19:15.394Z,103018.31
2023-02-03T16:21:29.203Z,103012.44
2023-02-03T16:23:31.274Z,103025.31
2023-02-03T16:25:35.109Z,103029.59
2023-02-03T16:27:37.249Z,103037.56
2023-02-03T16:29:42.636Z,103034.63
2023-02-03T16:31:49.716Z,103030.56
2023-02-03T16:33:55.002Z,103039.78
2023-02-03T16:36:02.240Z,103034.41
2023-02-03T16:38:10.039Z,103042.06
2023-02-03T16:40:17.424Z,103043.75
2023-02-03T16:42:24.587Z,103053.28
2023-02-03T16:44:29.652Z,103067.38
2023-02-03T16:46:35.198Z,103060.50
2023-02-03T16:48:40.160Z,103069.69
2023-02-03T16:50:46.311Z,103069.91
2023-02-03T16:52:48.719Z,103066.66
2023-02-03T16:54:50.764Z,103068.34
2023-02-03T16:56:52.655Z,103065.41
2023-02-03T16:58:54.557Z,103063.78
2023-02-03T17:00:59.315Z,103061.56
2023-02-03T17:03:05.173Z,103057.03
2023-02-03T17:05:07.261Z,103056.91
2023-02-03T17:07:09.284Z,103055.97
2023-02-03T17:09:11.334Z,103058.03
2023-02-03T17:11:18.527Z,103065.03
2023-02-03T17:13:21.863Z,103063.50
2023-02-03T17:15:23.769Z,103063.69
2023-02-03T17:17:25.736Z,103068.94
2023-02-03T17:19:27.648Z,103066.00
2023-02-03T17:21:30.014Z,103068.69
2023-02-03T17:23:31.883Z,103072.47
2023-02-03T17:25:36.438Z,103065.66
2023-02-03T17:27:38.550Z,103079.16
2023-02-03T17:29:40.505Z,103075.47
2023-02-03T17:31:45.470Z,103083.50
2023-02-03T17:33:51.413Z,103086.78
2023-02-03T17:35:59.708Z,103099.84
2023-02-03T17:38:01.680Z,103087.75
2023-02-03T17:54:07.579Z,103102.22
2023-02-03T17:56:11.814Z,103110.78
2023-02-03T17:58:14.228Z,103104.47
2023-02-03T18:00:17.277Z,103103.91
2023-02-03T18:02:19.190Z,103110.78
2023-02-03T18:04:21.481Z,103118.78
2023-02-03T18:06:25.437Z,103104.66
2023-02-03T18:08:27.361Z,103112.72
2023-02-03T18:10:29.564Z,103120.47
2023-02-03T18:12:31.788Z,103118.03
2023-02-03T18:14:34.286Z,103130.06
2023-02-03T18:16:36.713Z,103124.59
2023-02-03T18:18:39.639Z,103129.06
2023-02-03T18:20:41.526Z,103137.53
2023-02-03T18:22:44.478Z,103130.44
2023-02-03T18:24:51.302Z,103136.31
2023-02-03T18:26:56.066Z,103138.06
2023-02-03T18:28:58.418Z,103139.84
2023-02-03T18:31:04.116Z,103147.75
2023-02-03T18:33:06.468Z,103139.09
2023-02-03T18:35:13.033Z,103145.16
2023-02-03T18:37:14.848Z,103150.31
2023-02-03T18:39:18.275Z,103157.44
2023-02-03T18:41:22.504Z,103151.31
2023-02-03T18:43:24.330Z,103160.03
2023-02-03T18:45:26.257Z,103158.31
2023-02-03T18:47:28.026Z,103158.97
2023-02-03T18:49:30.200Z,103164.06
2023-02-03T18:51:32.164Z,103158.97
2023-02-03T18:53:34.071Z,103164.38
2023-02-03T18:55:36.481Z,103161.47
2023-02-03T18:57:38.754Z,103159.94
2023-02-03T18:59:40.623Z,103162.63
2023-02-03T19:01:46.572Z,103160.59
2023-02-03T19:03:49.137Z,103160.84
2023-02-03T19:05:51.453Z,103164.63
2023-02-03T19:07:53.439Z,103161.38
2023-02-03T19:09:55.319Z,103165.75
2023-02-03T19:11:59.243Z,103169.22
2023-02-03T19:14:04.164Z,103174.16
2023-02-03T19:16:07.036Z,103169.47
2023-02-03T19:18:09.685Z,103164.25
2023-02-03T19:20:13.058Z,103172.78
2023-02-03T19:22:15.510Z,103169.09
2023-02-03T19:24:21.533Z,103154.66
2023-02-03T19:26:26.619Z,103158.19
2023-02-03T19:28:31.176Z,103164.81
2023-02-03T19:30:34.277Z,103161.59
2023-02-03T19:32:38.459Z,103160.41
2023-02-03T19:34:40.844Z,103165.88
2023-02-03T19:36:43.224Z,103162.22
2023-02-03T19:38:45.464Z,103168.16
2023-02-03T19:40:47.573Z,103161.28
2023-02-03T19:42:50.293Z,103176.56
2023-02-03T19:44:52.471Z,103169.69
2023-02-03T19:46:54.652Z,103169.44
2023-02-03T19:48:56.647Z,103161.50
2023-02-03T19:50:58.530Z,103167.47
2023-02-03T19:53:00.733Z,103175.28
2023-02-03T19:55:02.669Z,103177.00
2023-02-03T19:57:04.580Z,103175.22
2023-02-03T19:59:06.668Z,103176.88
2023-02-03T20:01:10.300Z,103182.50
2023-02-03T20:03:12.368Z,103185.91
2023-02-03T20:05:14.924Z,103185.50
2023-02-03T20:07:16.977Z,103191.63
2023-02-03T20:09:18.743Z,103194.06
2023-02-03T20:11:20.752Z,103196.78
2023-02-03T20:13:22.603Z,103198.53
2023-02-03T20:15:24.439Z,103193.44
2023-02-03T20:17:26.845Z,103197.13
2023-02-03T20:19:28.687Z,103203.03
2023-02-03T20:21:31.033Z,103200.22
2023-02-03T20:23:35.277Z,103205.13
2023-02-03T20:25:37.122Z,103203.06
2023-02-03T20:27:38.950Z,103199.22
2023-02-03T20:29:41.391Z,103189.63
2023-02-03T20:31:46.425Z,103193.34
2023-02-03T20:33:49.172Z,103194.25
2023-02-03T20:35:51.450Z,103191.16
2023-02-03T20:37:53.491Z,103191.47
2023-02-03T20:39:55.398Z,103198.69
2023-02-03T20:41:57.698Z,103196.66
2023-02-03T20:43:59.611Z,103195.88
2023-02-03T20:46:01.684Z,103201.72
2023-02-03T20:48:03.871Z,103203.50
2023-02-03T20:50:12.815Z,103212.25
2023-02-03T20:52:16.826Z,103210.78
2023-02-03T20:54:21.457Z,103220.88
2023-02-03T20:56:23.901Z,103215.78
2023-02-03T20:58:29.546Z,103219.19
2023-02-03T21:00:31.787Z,103232.72
2023-02-03T21:02:54.208Z,103228.44
2023-02-03T21:04:59.349Z,103230.94
2023-02-03T21:07:06.735Z,103230.81
2023-02-03T21:09:14.960Z,103235.09
2023-02-03T21:11:20.483Z,103229.34
2023-02-03T21:13:25.278Z,103225.63
2023-02-03T21:15:29.668Z,103227.66
2023-02-03T21:17:35.979Z,103230.56
2023-02-03T21:19:40.082Z,103236.94
2023-02-03T21:21:42.637Z,103236.81
2023-02-03T21:23:47.610Z,103240.28
2023-02-03T21:25:49.645Z,103250.81
2023-02-03T21:27:51.941Z,103243.69
2023-02-03T21:29:57.565Z,103260.94
2023-02-03T21:32:00.433Z,103256.38
2023-02-03T21:34:16.713Z,103258.38
2023-02-03T21:36:22.038Z,103256.81
2023-02-03T21:38:31.549Z,103261.91
2023-02-03T21:40:35.006Z,103261.75
2023-02-03T21:42:39.917Z,103258.44
2023-02-03T21:44:44.307Z,103265.94
2023-02-03T21:46:46.213Z,103261.66
2023-02-03T21:48:51.441Z,103266.03
2023-02-03T21:50:55.431Z,103269.41
2023-02-03T21:53:21.578Z,103271.19
2023-02-03T21:55:23.411Z,103268.25
2023-02-03T21:57:25.236Z,103269.34
2023-02-03T21:59:37.344Z,103272.69
2023-02-03T22:01:39.484Z,103269.50
2023-02-03T22:03:43.333Z,103271.28
2023-02-03T22:05:50.500Z,103276.16
2023-02-03T22:07:52.381Z,103266.03
2023-02-03T22:09:54.669Z,103268.75
2023-02-03T22:11:56.410Z,103269.56
2023-02-03T22:13:58.291Z,103274.16
2023-02-03T22:16:01.435Z,103276.88
2023-02-03T22:18:04.174Z,103280.72
2023-02-03T22:20:07.169Z,103277.38
2023-02-03T22:22:09.150Z,103272.97
2023-02-03T22:24:11.068Z,103289.56
2023-02-03T22:26:16.711Z,103283.50
2023-02-03T22:28:19.018Z,103289.28
2023-02-03T22:30:21.079Z,103284.91
2023-02-03T22:32:23.392Z,103289.72
2023-02-03T22:34:25.697Z,103293.00
2023-02-03T22:36:27.528Z,103300.66
2023-02-03T22:38:29.989Z,103301.28
2023-02-03T22:40:32.694Z,103299.59
2023-02-03T22:42:34.567Z,103306.38
2023-02-03T22:44:36.348Z,103304.31
2023-02-03T22:46:38.308Z,103314.03
2023-02-03T22:48:40.217Z,103316.69
2023-02-03T22:50:42.553Z,103317.50
2023-02-03T22:52:44.556Z,103324.22
2023-02-03T22:54:46.422Z,103320.97
2023-02-03T22:56:48.217Z,103322.28
2023-02-03T22:58:50.542Z,103326.03
2023-02-03T23:00:52.432Z,103326.66
2023-02-03T23:02:54.571Z,103327.19
2023-02-03T23:04:56.456Z,103326.19
2023-02-03T23:06:58.340Z,103324.25
2023-02-03T23:09:00.245Z,103330.31
2023-02-03T23:11:02.082Z,103332.63
2023-02-03T23:13:04.041Z,103333.31
2023-02-03T23:15:06.462Z,103338.47
2023-02-03T23:17:08.313Z,103338.66
2023-02-03T23:19:10.161Z,103337.50
2023-02-03T23:21:12.394Z,103338.09
2023-02-03T23:23:14.418Z,103337.94
2023-02-03T23:25:16.290Z,103332.94
2023-02-03T23:27:18.530Z,103334.03
2023-02-03T23:29:20.341Z,103331.00
2023-02-03T23:31:22.231Z,103337.22
2023-02-03T23:33:24.145Z,103341.56
2023-02-03T23:35:31.453Z,103346.63
2023-02-03T23:37:33.695Z,103352.69
2023-02-03T23:39:35.465Z,103355.09
2023-02-03T23:41:37.229Z,103347.69
2023-02-03T23:43:39.025Z,103345.56
2023-02-03T23:45:41.337Z,103348.25
2023-02-03T23:47:45.233Z,103348.97
2023-02-03T23:49:47.093Z,103348.66
2023-02-03T23:51:48.912Z,103347.19
2023-02-03T23:53:52.999Z,103353.41
2023-02-03T23:55:57.451Z,103358.28